FMCZ

Dzaoudzi Pamandzi International Airport

Dzaoudzi, Mayotte
METAR FMCZ 170000Z AUTO 15017KT 7000 RA SCT015/// BKN021/// BKN080/// 25/23 Q1011 BECMG 12027G40KT 3700 TSRA SCT008CB SCT056 BKN078
Observed Flight Rules
Dec-17 @ 00:00 UTC (30 minutes ago) Marginal Visual Flight Rules
Wind Visibility Clouds Conditions
150° at 17 knots 7,001 meters
  • Scattered at 1,500' AGL
  • Broken at 2,100' AGL
  • Broken at 8,000' AGL
  • Rain
Temperatures Readings
Current 25°C / 77°F
Dewpoint 23°C / 73°F
Humidity 89%
Altimeter 29.85" Hg
Pressure 1011 hPa
Elevation 7
METAR FMCZ 170000Z AUTO 15017KT 7000 RA SCT015/// BKN021/// BKN080/// 25/23 Q1011 BECMG 12027G40KT 3700 TSRA SCT008CB SCT056 BKN078
Observed Flight Rules
Dec-17 @ 00:00 UTC
(30 minutes ago)
MVFR
Wind Visibility
150° at 17 knots 7,001 meters
Clouds
  • Scattered at 1,500' AGL
  • Broken at 2,100' AGL
  • Broken at 8,000' AGL
Conditions
  • Rain
Temperature Dewpoint
25°C / 77°F 23°C / 73°F
Humidity Altimeter Pressure
89% 29.85" Hg 1011 hPa